Time;durP1;ratioP1;P1;durP2;ratioP2;P2;SDS_P1;SDS_P2;PMS_P1;PMS_P2;Temp;Humidity;BMP_temperature;BMP_pressure;BME280_temperature;BME280_humidity;BME280_pressure;Samples;Min_cycle;Max_cycle;Signal;HPM_P1;HPM_P2
2022/03/06 00:04:37;;;;;;;2.30;2.10;;;;;;;-148.93;100.00;62180.91;20668298;28;20074;-81
2022/03/06 00:14:41;;;;;;;1.88;1.77;;;;;;;-148.93;100.00;62180.91;20635597;28;20057;-81
2022/03/06 00:24:45;;;;;;;2.35;1.70;;;;;;;-148.93;100.00;62180.91;20650890;28;20042;-81
2022/03/06 00:34:48;;;;;;;2.33;2.00;;;;;;;-148.93;100.00;62180.91;20650047;28;20050;-81
2022/03/06 00:44:52;;;;;;;2.08;1.88;;;;;;;-148.93;100.00;62180.91;20633272;28;20069;-81
2022/03/06 00:54:58;;;;;;;2.22;1.90;;;;;;;-148.93;100.00;62180.91;20664987;28;20100;-82
2022/03/06 01:05:03;;;;;;;2.10;1.80;;;;;;;-148.93;100.00;62180.91;20649102;28;20074;-82
2022/03/06 01:15:06;;;;;;;2.00;1.77;;;;;;;-148.93;100.00;62180.91;20634463;28;20129;-81
2022/03/06 01:25:09;;;;;;;2.22;1.92;;;;;;;-148.93;100.00;62180.91;20648755;28;20040;-81
2022/03/06 01:35:13;;;;;;;1.73;1.60;;;;;;;-148.93;100.00;62180.91;20663509;28;20125;-82
2022/03/06 01:45:18;;;;;;;2.42;1.98;;;;;;;-148.93;100.00;62180.91;20663405;28;20388;-81
2022/03/06 01:55:24;;;;;;;2.53;1.70;;;;;;;-148.93;100.00;62180.91;20662210;28;20050;-82
2022/03/06 02:05:26;;;;;;;2.00;1.60;;;;;;;-148.93;100.00;62180.91;21378900;23;20437;-77
2022/03/06 02:15:28;;;;;;;2.17;1.73;;;;;;;-148.93;100.00;62180.91;20921026;28;20061;-77
2022/03/06 02:25:33;;;;;;;2.38;1.52;;;;;;;-148.93;100.00;62180.91;20919686;28;20102;-77
2022/03/06 02:35:35;;;;;;;2.20;1.50;;;;;;;-148.93;100.00;62180.91;20915030;28;20532;-77
2022/03/06 02:45:40;;;;;;;1.70;1.60;;;;;;;-148.93;100.00;62180.91;20915023;28;20044;-77
2022/03/06 02:55:42;;;;;;;2.13;1.47;;;;;;;-148.93;100.00;62180.91;20914295;28;20053;-77
2022/03/06 03:05:44;;;;;;;1.95;1.60;;;;;;;-148.93;100.00;62180.91;20917941;28;20053;-77
2022/03/06 03:15:46;;;;;;;2.85;1.63;;;;;;;-148.93;100.00;62180.91;20916403;28;20457;-77
2022/03/06 03:25:47;;;;;;;1.77;1.50;;;;;;;-148.93;100.00;62180.91;20915164;28;20110;-77
2022/03/06 03:35:49;;;;;;;1.67;1.38;;;;;;;-148.93;100.00;62180.91;20913432;28;20041;-77
2022/03/06 03:45:51;;;;;;;1.50;1.40;;;;;;;-148.93;100.00;62180.91;20910946;28;20039;-77
2022/03/06 03:55:55;;;;;;;1.40;1.30;;;;;;;-148.93;100.00;62180.91;20912716;28;20079;-77
2022/03/06 04:05:57;;;;;;;2.28;1.27;;;;;;;-148.93;100.00;62180.91;20910394;28;20106;-77
2022/03/06 04:15:58;;;;;;;2.40;1.30;;;;;;;-148.93;100.00;62180.91;20911488;28;20094;-78
2022/03/06 04:26:00;;;;;;;1.63;1.10;;;;;;;-148.93;100.00;62180.91;20910527;28;20056;-77
2022/03/06 04:36:03;;;;;;;1.25;1.00;;;;;;;-148.93;100.00;62180.91;20909816;28;20044;-77
2022/03/06 04:46:05;;;;;;;1.42;1.13;;;;;;;-148.93;100.00;62180.91;20901013;28;20094;-77
2022/03/06 04:56:06;;;;;;;1.48;1.08;;;;;;;-148.93;100.00;62180.91;20908013;28;20064;-77
2022/03/06 05:06:08;;;;;;;1.67;1.02;;;;;;;-148.93;100.00;62180.91;20908290;28;20053;-77
2022/03/06 05:16:10;;;;;;;1.58;1.17;;;;;;;-148.93;100.00;62180.91;20907856;28;20164;-77
2022/03/06 05:26:12;;;;;;;1.45;1.25;;;;;;;-148.93;100.00;62180.91;20907497;28;20049;-77
2022/03/06 05:36:14;;;;;;;1.25;1.02;;;;;;;-148.93;100.00;62180.91;20906129;28;20102;-77
2022/03/06 05:46:16;;;;;;;1.58;1.00;;;;;;;-148.93;100.00;62180.91;20906839;28;20175;-77
2022/03/06 05:56:18;;;;;;;2.38;1.20;;;;;;;-148.93;100.00;62180.91;20907004;28;20049;-77
2022/03/06 06:06:24;;;;;;;1.30;1.00;;;;;;;-148.93;100.00;62180.91;20918148;28;20063;-77
2022/03/06 06:16:26;;;;;;;1.52;1.10;;;;;;;-148.93;100.00;62180.91;20920794;28;20053;-76
2022/03/06 06:26:28;;;;;;;1.05;0.90;;;;;;;-148.93;100.00;62180.91;20920171;28;20052;-77
2022/03/06 06:36:30;;;;;;;0.80;0.70;;;;;;;-148.93;100.00;62180.91;20939592;28;20061;-77
2022/03/06 06:46:32;;;;;;;1.27;0.95;;;;;;;-148.93;100.00;62180.91;20918078;28;20057;-77
2022/03/06 06:56:34;;;;;;;0.80;0.70;;;;;;;-148.93;100.00;62180.91;20917980;28;20049;-77
2022/03/06 07:06:36;;;;;;;1.02;0.70;;;;;;;-148.93;100.00;62180.91;20916849;28;20052;-76
2022/03/06 07:16:37;;;;;;;1.80;0.68;;;;;;;-148.93;100.00;62180.91;20915113;28;20091;-77
2022/03/06 07:26:39;;;;;;;0.98;0.70;;;;;;;-148.93;100.00;62180.91;20915647;28;20060;-76
2022/03/06 07:36:41;;;;;;;0.77;0.77;;;;;;;-148.93;100.00;62180.91;20914345;28;20048;-76
2022/03/06 07:46:43;;;;;;;1.33;0.90;;;;;;;-148.93;100.00;62180.91;20913026;28;20045;-77
2022/03/06 07:56:48;;;;;;;0.93;0.60;;;;;;;-148.93;100.00;62180.91;20912900;28;20076;-76
2022/03/06 08:06:50;;;;;;;0.60;0.60;;;;;;;-148.93;100.00;62180.91;20912613;28;20049;-76
2022/03/06 08:16:52;;;;;;;0.70;0.60;;;;;;;-148.93;100.00;62180.91;20911466;28;20045;-77
2022/03/06 08:26:54;;;;;;;1.88;0.73;;;;;;;-148.93;100.00;62180.91;20910600;28;20122;-78
2022/03/06 08:36:56;;;;;;;0.57;0.40;;;;;;;-148.93;100.00;62180.91;20910121;28;20552;-79
2022/03/06 08:46:57;;;;;;;1.08;0.60;;;;;;;-148.93;100.00;62180.91;20909314;28;20577;-80
2022/03/06 08:57:00;;;;;;;0.98;0.60;;;;;;;-148.93;100.00;62180.91;20911220;28;20075;-78
2022/03/06 09:07:02;;;;;;;1.02;0.60;;;;;;;-148.93;100.00;62180.91;20909170;28;20045;-77
2022/03/06 09:17:04;;;;;;;1.08;0.50;;;;;;;-148.93;100.00;62180.91;20918597;28;20049;-77
2022/03/06 09:27:06;;;;;;;1.10;0.63;;;;;;;-148.93;100.00;62180.91;20907099;28;20125;-77
2022/03/06 09:37:08;;;;;;;1.00;0.50;;;;;;;-148.93;100.00;62180.91;20910860;28;20095;-77
2022/03/06 09:47:10;;;;;;;1.33;0.68;;;;;;;-148.93;100.00;62180.91;20926714;28;20429;-77
2022/03/06 09:57:17;;;;;;;0.45;0.35;;;;;;;-148.93;100.00;62180.91;20920873;28;20045;-78
2022/03/06 10:07:20;;;;;;;0.95;0.45;;;;;;;-148.93;100.00;62180.91;20921248;28;20045;-77
2022/03/06 10:17:24;;;;;;;0.63;0.40;;;;;;;-148.93;100.00;62180.91;20921382;28;20060;-76
2022/03/06 10:27:46;;;;;;;1.13;0.50;;;;;;;-148.93;100.00;62180.91;20919921;28;20056;-78
2022/03/06 10:37:48;;;;;;;0.93;0.45;;;;;;;-148.93;100.00;62180.91;20920909;28;20061;-79
2022/03/06 10:47:50;;;;;;;2.67;1.13;;;;;;;-148.93;100.00;62180.91;20915813;28;20045;-79
2022/03/06 10:57:56;;;;;;;1.67;0.70;;;;;;;-148.93;100.00;62180.91;20916297;28;20061;-78
2022/03/06 11:07:58;;;;;;;0.65;0.47;;;;;;;-148.93;100.00;62180.91;20915867;28;20049;-78
2022/03/06 11:18:01;;;;;;;1.48;0.65;;;;;;;-148.93;100.00;62180.91;20916161;28;20402;-78
2022/03/06 11:28:45;;;;;;;1.23;0.43;;;;;;;-148.93;100.00;62180.91;20915351;28;20044;-79
2022/03/06 11:38:48;;;;;;;1.25;0.40;;;;;;;-148.93;100.00;62180.91;20897009;28;20053;-79
2022/03/06 11:48:50;;;;;;;1.50;0.60;;;;;;;-148.93;100.00;62180.91;20913750;28;20048;-79
2022/03/06 11:58:53;;;;;;;0.82;0.77;;;;;;;-148.93;100.00;62180.91;20911344;28;20053;-79
2022/03/06 12:08:55;;;;;;;0.95;0.50;;;;;;;-148.93;100.00;62180.91;20912149;28;20059;-79
2022/03/06 12:19:03;;;;;;;0.90;0.60;;;;;;;-148.93;100.00;62180.91;20911971;28;20075;-79
2022/03/06 12:29:05;;;;;;;1.65;0.55;;;;;;;-148.93;100.00;62180.91;20909703;28;20168;-79
2022/03/06 12:39:10;;;;;;;1.33;0.50;;;;;;;-148.93;100.00;62180.91;20908868;28;20056;-79
2022/03/06 12:49:12;;;;;;;1.50;0.60;;;;;;;-148.93;100.00;62180.91;20909958;28;20115;-78
2022/03/06 12:59:16;;;;;;;1.50;0.50;;;;;;;-148.93;100.00;62180.91;20907641;28;20499;-78
2022/03/06 13:09:20;;;;;;;0.75;0.60;;;;;;;-148.93;100.00;62180.91;20907039;28;20063;-78
2022/03/06 13:19:22;;;;;;;0.68;0.50;;;;;;;-148.93;100.00;62180.91;20906269;28;20052;-78
2022/03/06 13:29:24;;;;;;;0.80;0.70;;;;;;;-148.93;100.00;62180.91;20907563;28;20457;-78
2022/03/06 13:39:27;;;;;;;0.80;0.60;;;;;;;-148.93;100.00;62180.91;20907110;28;20055;-78
2022/03/06 13:49:35;;;;;;;0.93;0.55;;;;;;;-148.93;100.00;62180.91;20906718;28;20041;-78
2022/03/06 13:59:38;;;;;;;1.15;0.50;;;;;;;-148.93;100.00;62180.91;20906209;28;20080;-78
2022/03/06 14:09:45;;;;;;;1.08;0.50;;;;;;;-148.93;100.00;62180.91;20905933;28;20076;-78
2022/03/06 14:19:58;;;;;;;1.50;0.50;;;;;;;-148.93;100.00;62180.91;20905767;28;20084;-78
2022/03/06 14:30:00;;;;;;;2.05;1.00;;;;;;;-148.93;100.00;62180.91;20948832;28;20033;-77
2022/03/06 14:40:02;;;;;;;1.58;0.68;;;;;;;-148.93;100.00;62180.91;20916735;28;20118;-78
2022/03/06 14:50:05;;;;;;;1.08;0.50;;;;;;;-148.93;100.00;62180.91;20916387;28;20043;-83
2022/03/06 15:00:09;;;;;;;1.90;0.60;;;;;;;-148.93;100.00;62180.91;20917615;28;20382;-74
2022/03/06 15:10:10;;;;;;;0.82;0.50;;;;;;;-148.93;100.00;62180.91;20917263;28;20398;-74
2022/03/06 15:20:12;;;;;;;1.20;0.68;;;;;;;-148.93;100.00;62180.91;20916263;28;20052;-73
2022/03/06 15:30:14;;;;;;;1.10;0.50;;;;;;;-148.93;100.00;62180.91;20914438;28;20103;-74
2022/03/06 15:40:17;;;;;;;1.67;0.60;;;;;;;-148.93;100.00;62180.91;20913748;28;20144;-74
2022/03/06 15:50:19;;;;;;;1.98;0.68;;;;;;;-148.93;100.00;62180.91;20913818;28;20061;-74
2022/03/06 16:00:21;;;;;;;2.47;0.70;;;;;;;-148.93;100.00;62180.91;20911686;28;20056;-74
2022/03/06 16:10:26;;;;;;;2.70;0.70;;;;;;;-148.93;100.00;62180.91;20912384;28;20490;-74
2022/03/06 16:20:28;;;;;;;2.05;0.70;;;;;;;-148.93;100.00;62180.91;20911391;28;20306;-76
2022/03/06 16:30:30;;;;;;;1.88;0.50;;;;;;;-148.93;100.00;62180.91;20910335;28;20077;-76
2022/03/06 16:40:32;;;;;;;1.40;0.60;;;;;;;-148.93;100.00;62180.91;20909926;28;20056;-76
2022/03/06 16:50:35;;;;;;;2.15;0.80;;;;;;;-148.93;100.00;62180.91;20909239;28;20041;-76
2022/03/06 17:00:37;;;;;;;1.67;0.70;;;;;;;-148.93;100.00;62180.91;20907761;28;20060;-76
2022/03/06 17:10:40;;;;;;;0.80;0.45;;;;;;;-148.93;100.00;62180.91;20907580;28;20080;-76
2022/03/06 17:20:45;;;;;;;1.15;0.50;;;;;;;-148.93;100.00;62180.91;20908229;28;20049;-76
2022/03/06 17:30:47;;;;;;;0.93;0.60;;;;;;;-148.93;100.00;62180.91;20908812;28;20124;-76
2022/03/06 17:40:55;;;;;;;0.73;0.50;;;;;;;-148.93;100.00;62180.91;20906458;28;20098;-76
2022/03/06 17:50:57;;;;;;;0.80;0.45;;;;;;;-148.93;100.00;62180.91;20907112;28;20418;-75
2022/03/06 18:00:59;;;;;;;0.65;0.40;;;;;;;-148.93;100.00;62180.91;20914062;28;20061;-76
2022/03/06 18:11:03;;;;;;;0.45;0.43;;;;;;;-148.93;100.00;62180.91;20920355;28;20049;-77
2022/03/06 18:21:06;;;;;;;1.38;0.70;;;;;;;-148.93;100.00;62180.91;20922349;28;20048;-76
2022/03/06 18:31:21;;;;;;;0.65;0.50;;;;;;;-148.93;100.00;62180.91;20920229;28;20052;-76
2022/03/06 18:41:23;;;;;;;1.13;0.50;;;;;;;-148.93;100.00;62180.91;20919426;28;20053;-76
2022/03/06 18:51:25;;;;;;;0.50;0.50;;;;;;;-148.93;100.00;62180.91;20917621;28;20049;-76
2022/03/06 19:01:27;;;;;;;0.85;0.40;;;;;;;-148.93;100.00;62180.91;20917948;28;20114;-77
2022/03/06 19:11:29;;;;;;;0.93;0.45;;;;;;;-148.93;100.00;62180.91;20919005;28;20056;-77
2022/03/06 19:21:31;;;;;;;1.00;0.55;;;;;;;-148.93;100.00;62180.91;20960469;28;20112;-76
2022/03/06 19:31:36;;;;;;;0.68;0.52;;;;;;;-148.93;100.00;62180.91;20943221;28;20048;-76
2022/03/06 19:41:38;;;;;;;0.90;0.60;;;;;;;-148.93;100.00;62180.91;20909572;28;20045;-75
2022/03/06 19:51:40;;;;;;;0.73;0.40;;;;;;;-148.93;100.00;62180.91;20917807;28;20220;-74
2022/03/06 20:01:42;;;;;;;0.60;0.40;;;;;;;-148.93;100.00;62180.91;20922781;28;20064;-75
2022/03/06 20:11:45;;;;;;;0.80;0.47;;;;;;;-148.93;100.00;62180.91;20912414;28;20041;-75
2022/03/06 20:21:48;;;;;;;0.60;0.50;;;;;;;-148.93;100.00;62180.91;20929627;28;20051;-75
2022/03/06 20:31:54;;;;;;;0.73;0.60;;;;;;;-148.93;100.00;62180.91;20944574;28;20044;-74
2022/03/06 20:41:56;;;;;;;1.58;0.90;;;;;;;-148.93;100.00;62180.91;20960600;28;20491;-75
2022/03/06 20:51:58;;;;;;;0.85;0.60;;;;;;;-148.93;100.00;62180.91;20923848;28;20033;-75
2022/03/06 21:02:00;;;;;;;1.20;0.88;;;;;;;-148.93;100.00;62180.91;20921562;28;20052;-75
2022/03/06 21:12:02;;;;;;;1.00;0.70;;;;;;;-148.93;100.00;62180.91;20919147;28;20037;-75
2022/03/06 21:22:05;;;;;;;1.23;0.70;;;;;;;-148.93;100.00;62180.91;20942576;28;20053;-75
2022/03/06 21:32:07;;;;;;;2.10;0.80;;;;;;;-148.93;100.00;62180.91;20944260;28;20536;-75
2022/03/06 21:42:09;;;;;;;0.65;0.50;;;;;;;-148.93;100.00;62180.91;20946311;28;20056;-75
2022/03/06 21:52:13;;;;;;;1.27;0.75;;;;;;;-148.93;100.00;62180.91;20943052;28;20052;-75
2022/03/06 22:02:15;;;;;;;1.38;1.00;;;;;;;-148.93;100.00;62180.91;20937694;28;20053;-75
2022/03/06 22:12:17;;;;;;;1.30;0.98;;;;;;;-148.93;100.00;62180.91;20972699;28;20057;-75
2022/03/06 22:22:19;;;;;;;1.40;0.90;;;;;;;-148.93;100.00;62180.91;20960605;28;20060;-75
2022/03/06 22:32:21;;;;;;;0.77;0.70;;;;;;;-148.93;100.00;62180.91;20940039;28;20513;-75
2022/03/06 22:42:29;;;;;;;1.45;0.70;;;;;;;-148.93;100.00;62180.91;20952417;28;20041;-75
2022/03/06 22:52:31;;;;;;;1.20;0.90;;;;;;;-148.93;100.00;62180.91;20913969;28;20033;-74
2022/03/06 23:02:34;;;;;;;1.70;0.80;;;;;;;-148.93;100.00;62180.91;20915588;28;20494;-74
2022/03/06 23:12:35;;;;;;;0.70;0.70;;;;;;;-148.93;100.00;62180.91;20951375;28;20406;-75
2022/03/06 23:22:40;;;;;;;0.93;0.70;;;;;;;-148.93;100.00;62180.91;20950436;28;20076;-75
2022/03/06 23:32:42;;;;;;;1.25;0.80;;;;;;;-148.93;100.00;62180.91;20937531;28;20048;-75
2022/03/06 23:42:44;;;;;;;0.60;0.60;;;;;;;-148.93;100.00;62180.91;20965508;28;20048;-75
2022/03/06 23:52:46;;;;;;;1.52;0.73;;;;;;;-148.93;100.00;62180.91;20942377;28;20547;-75
